createdAt,value
2023-12-29T00:00:44.695Z,9.91
2023-12-29T00:03:36.836Z,9.97
2023-12-29T00:06:28.758Z,9.97
2023-12-29T00:09:20.644Z,10.03
2023-12-29T00:12:12.406Z,10.03
2023-12-29T00:15:04.659Z,10.03
2023-12-29T00:17:56.691Z,10.05
2023-12-29T00:20:49.146Z,9.89
2023-12-29T00:23:56.923Z,9.98
2023-12-29T00:26:48.679Z,9.83
2023-12-29T00:29:40.528Z,9.78
2023-12-29T00:32:32.441Z,9.94
2023-12-29T00:35:24.606Z,9.84
2023-12-29T00:38:16.433Z,9.86
2023-12-29T00:41:08.278Z,9.78
2023-12-29T00:44:00.109Z,9.77
2023-12-29T00:46:52.019Z,9.79
2023-12-29T00:49:43.813Z,9.72
2023-12-29T00:52:35.679Z,9.57
2023-12-29T00:55:27.526Z,9.48
2023-12-29T00:58:19.326Z,9.49
2023-12-29T01:01:11.316Z,9.66
2023-12-29T01:04:03.654Z,9.56
2023-12-29T01:06:55.646Z,9.48
2023-12-29T01:09:47.497Z,9.73
2023-12-29T01:12:39.384Z,9.65
2023-12-29T01:15:31.194Z,9.68
2023-12-29T01:18:23.117Z,9.61
2023-12-29T01:21:14.944Z,9.64
2023-12-29T01:24:07.035Z,9.72
2023-12-29T01:26:58.865Z,9.67
2023-12-29T01:29:50.770Z,9.63
2023-12-29T01:32:42.533Z,9.69
2023-12-29T01:35:34.781Z,9.78
2023-12-29T01:38:26.673Z,9.91
2023-12-29T01:41:21.182Z,9.65
2023-12-29T01:44:21.474Z,9.68
2023-12-29T01:47:16.507Z,9.57
2023-12-29T01:50:08.866Z,9.49
2023-12-29T01:53:04.801Z,9.44
2023-12-29T01:55:57.353Z,9.45
2023-12-29T01:58:52.104Z,9.60
2023-12-29T02:01:44.760Z,9.72
2023-12-29T02:04:38.479Z,9.79
2023-12-29T02:07:31.654Z,9.87
2023-12-29T02:10:24.267Z,9.78
2023-12-29T02:13:16.236Z,9.63
2023-12-29T02:16:33.440Z,9.73
2023-12-29T02:19:46.708Z,9.52
2023-12-29T02:22:38.768Z,9.63
2023-12-29T02:25:31.268Z,9.53
2023-12-29T02:28:27.781Z,9.46
2023-12-29T02:31:28.315Z,9.27
2023-12-29T02:34:23.628Z,9.23
2023-12-29T02:37:16.316Z,9.23
2023-12-29T02:40:09.377Z,9.11
2023-12-29T02:43:01.329Z,9.26
2023-12-29T02:45:53.217Z,9.09
2023-12-29T02:48:45.106Z,9.12
2023-12-29T02:51:37.128Z,8.89
2023-12-29T02:54:29.009Z,9.00
2023-12-29T02:57:20.748Z,8.95
2023-12-29T03:00:12.916Z,8.95
2023-12-29T03:03:04.990Z,8.88
2023-12-29T03:05:56.818Z,8.90
2023-12-29T03:08:49.199Z,8.88
2023-12-29T03:11:40.980Z,9.08
2023-12-29T03:14:32.888Z,9.13
2023-12-29T03:17:24.730Z,9.27
2023-12-29T03:20:16.567Z,9.30
2023-12-29T03:23:08.411Z,9.35
2023-12-29T03:26:00.845Z,9.20
2023-12-29T03:28:52.625Z,9.42
2023-12-29T03:31:44.512Z,9.24
2023-12-29T03:34:36.470Z,9.07
2023-12-29T03:37:28.346Z,9.09
2023-12-29T03:40:20.195Z,9.15
2023-12-29T03:43:12.145Z,9.14
2023-12-29T03:46:04.179Z,9.15
2023-12-29T03:48:56.044Z,9.48
2023-12-29T03:51:47.995Z,9.16
2023-12-29T03:54:41.113Z,9.20
2023-12-29T03:57:32.960Z,9.15
2023-12-29T04:00:25.009Z,9.17
2023-12-29T04:03:16.758Z,9.29
2023-12-29T04:06:09.551Z,9.34
2023-12-29T04:09:01.390Z,9.22
2023-12-29T04:11:53.203Z,9.14
2023-12-29T04:14:44.996Z,9.12
2023-12-29T04:17:37.055Z,9.26
2023-12-29T04:20:28.985Z,9.45
2023-12-29T04:23:20.929Z,9.55
2023-12-29T04:26:12.727Z,9.53
2023-12-29T04:29:04.671Z,9.29
2023-12-29T04:31:56.419Z,9.28
2023-12-29T04:34:48.325Z,9.35
2023-12-29T04:37:45.150Z,9.29
2023-12-29T04:40:37.438Z,9.28
2023-12-29T04:43:29.281Z,9.23
2023-12-29T04:46:21.035Z,9.22
2023-12-29T04:49:12.931Z,9.27
2023-12-29T04:52:05.371Z,9.20
2023-12-29T04:54:57.251Z,9.16
2023-12-29T04:57:49.139Z,9.30
2023-12-29T05:00:41.062Z,9.33
2023-12-29T05:03:32.938Z,9.34
2023-12-29T05:06:24.745Z,9.31
2023-12-29T05:09:16.522Z,9.47
2023-12-29T05:12:08.430Z,9.58
2023-12-29T05:15:00.249Z,9.53
2023-12-29T05:17:52.194Z,9.56
2023-12-29T05:20:43.996Z,9.47
2023-12-29T05:23:35.731Z,9.42
2023-12-29T05:26:27.541Z,9.52
2023-12-29T05:29:19.330Z,9.52
2023-12-29T05:32:11.084Z,9.83
2023-12-29T05:35:02.988Z,10.10
2023-12-29T05:37:54.884Z,10.28
2023-12-29T05:40:46.726Z,10.44
2023-12-29T05:43:39.309Z,10.17
2023-12-29T05:46:31.082Z,10.41
2023-12-29T05:49:26.114Z,10.31
2023-12-29T05:52:18.013Z,10.31
2023-12-29T05:55:09.963Z,10.00
2023-12-29T05:58:01.989Z,9.76
2023-12-29T06:00:56.256Z,9.43
2023-12-29T06:03:48.175Z,9.59
2023-12-29T06:06:42.521Z,9.75
2023-12-29T06:09:34.378Z,9.83
2023-12-29T06:12:26.251Z,9.98
2023-12-29T06:15:18.134Z,10.22
2023-12-29T06:18:10.015Z,9.85
2023-12-29T06:21:03.259Z,9.93
2023-12-29T06:23:55.034Z,9.68
2023-12-29T06:26:46.877Z,9.71
2023-12-29T06:29:38.634Z,9.63
2023-12-29T06:32:30.470Z,9.54
2023-12-29T06:35:22.272Z,9.32
2023-12-29T06:38:14.103Z,9.41
2023-12-29T06:41:06.362Z,9.41
2023-12-29T06:43:58.224Z,9.51
2023-12-29T06:46:50.053Z,9.64
2023-12-29T06:49:42.111Z,9.46
2023-12-29T06:52:34.059Z,9.45
2023-12-29T06:55:26.398Z,9.63
2023-12-29T06:58:18.317Z,9.69
2023-12-29T07:01:10.763Z,9.66
2023-12-29T07:04:02.761Z,9.50
2023-12-29T07:06:54.706Z,9.63
2023-12-29T07:09:46.581Z,9.26
2023-12-29T07:12:38.421Z,9.14
2023-12-29T07:15:30.286Z,8.99
2023-12-29T07:18:22.202Z,8.89
2023-12-29T07:21:18.095Z,9.00
2023-12-29T07:24:11.507Z,8.98
2023-12-29T07:27:03.849Z,8.88
2023-12-29T07:29:55.707Z,8.75
2023-12-29T07:32:47.545Z,8.75
2023-12-29T07:35:39.419Z,8.77
2023-12-29T07:38:31.292Z,8.82
2023-12-29T07:41:23.079Z,8.87
2023-12-29T07:44:14.916Z,8.84
2023-12-29T07:47:06.719Z,8.98
2023-12-29T07:49:58.796Z,9.01
2023-12-29T07:52:50.698Z,9.11
2023-12-29T07:55:44.218Z,9.37
2023-12-29T07:58:35.986Z,9.54
2023-12-29T08:01:27.790Z,9.18
2023-12-29T08:04:19.736Z,9.10
2023-12-29T08:07:11.637Z,8.88
2023-12-29T08:10:03.567Z,8.85
2023-12-29T08:12:55.405Z,8.98
2023-12-29T08:15:47.261Z,8.97
2023-12-29T08:18:39.300Z,8.95
2023-12-29T08:21:31.164Z,8.93
2023-12-29T08:24:22.968Z,9.12
2023-12-29T08:27:15.126Z,9.26
2023-12-29T08:30:07.500Z,9.44
2023-12-29T08:32:59.306Z,9.23
2023-12-29T08:35:51.164Z,9.45
2023-12-29T08:38:42.941Z,9.65
2023-12-29T08:41:34.695Z,9.57
2023-12-29T08:44:26.463Z,9.82
2023-12-29T08:47:18.216Z,9.93
2023-12-29T08:50:10.271Z,9.92
2023-12-29T08:53:02.041Z,10.07
2023-12-29T08:55:53.821Z,9.81
2023-12-29T08:58:45.591Z,9.87
2023-12-29T09:01:37.500Z,9.90
2023-12-29T09:04:29.427Z,9.76
2023-12-29T09:07:21.167Z,9.60
2023-12-29T09:10:13.005Z,9.45
2023-12-29T09:13:05.026Z,9.64
2023-12-29T09:15:56.977Z,10.16
2023-12-29T09:18:48.827Z,10.23
2023-12-29T09:21:40.663Z,9.98
2023-12-29T09:24:32.465Z,10.14
2023-12-29T09:27:24.243Z,9.98
2023-12-29T09:30:16.178Z,10.12
2023-12-29T09:33:08.060Z,10.27
2023-12-29T09:35:59.938Z,10.20
2023-12-29T09:38:51.715Z,10.34
2023-12-29T09:41:47.499Z,9.98
2023-12-29T09:44:39.536Z,10.04
2023-12-29T09:47:37.326Z,10.06
2023-12-29T09:50:29.781Z,10.31
2023-12-29T09:53:22.144Z,10.23
2023-12-29T09:56:14.349Z,10.18
2023-12-29T09:59:09.759Z,10.21
2023-12-29T10:02:03.209Z,10.27
2023-12-29T10:04:55.078Z,10.24
2023-12-29T10:07:48.691Z,10.47
2023-12-29T10:10:43.546Z,10.33
2023-12-29T10:13:36.823Z,10.29
2023-12-29T10:16:41.098Z,10.67
2023-12-29T10:19:51.097Z,10.62
2023-12-29T10:23:12.029Z,10.52
2023-12-29T10:26:04.806Z,10.30
2023-12-29T10:28:59.376Z,10.38
2023-12-29T10:31:51.356Z,10.41
2023-12-29T10:34:43.269Z,10.80
2023-12-29T10:37:35.421Z,10.97
2023-12-29T10:40:27.264Z,10.84
2023-12-29T10:43:25.236Z,10.82
2023-12-29T10:46:18.577Z,11.15
2023-12-29T10:49:14.795Z,11.21
2023-12-29T10:52:17.329Z,11.87
2023-12-29T10:55:11.258Z,12.18
2023-12-29T10:58:03.142Z,11.49
2023-12-29T11:00:56.349Z,11.68
2023-12-29T11:04:07.882Z,11.69
2023-12-29T11:06:59.765Z,11.97
2023-12-29T11:09:51.624Z,11.80
2023-12-29T11:12:45.060Z,11.43
2023-12-29T11:15:40.951Z,11.59
2023-12-29T11:18:35.174Z,11.87
2023-12-29T11:21:28.170Z,11.38
2023-12-29T11:24:25.560Z,12.10
2023-12-29T11:27:22.045Z,12.52
2023-12-29T11:30:15.533Z,12.84
2023-12-29T11:33:19.771Z,12.82
2023-12-29T11:36:28.068Z,12.73
2023-12-29T11:39:46.628Z,12.87
2023-12-29T11:42:42.926Z,13.16
2023-12-29T11:45:36.297Z,12.84
2023-12-29T11:48:56.434Z,12.75
2023-12-29T11:51:48.519Z,13.01
2023-12-29T11:54:40.373Z,13.28
2023-12-29T11:57:34.728Z,13.39
2023-12-29T12:00:46.526Z,13.49
2023-12-29T12:03:38.823Z,13.38
2023-12-29T12:06:40.392Z,13.53
2023-12-29T12:09:32.216Z,13.70
2023-12-29T12:12:43.574Z,13.80
2023-12-29T12:15:35.880Z,13.75
2023-12-29T12:18:27.946Z,13.47
2023-12-29T12:21:20.753Z,13.83
2023-12-29T12:24:12.582Z,12.93
2023-12-29T12:27:04.854Z,12.80
2023-12-29T12:29:58.251Z,12.53
2023-12-29T12:33:01.036Z,12.48
2023-12-29T12:36:00.924Z,12.61
2023-12-29T12:38:57.385Z,12.71
2023-12-29T12:41:49.294Z,12.33
2023-12-29T12:44:47.760Z,12.30
2023-12-29T12:47:47.009Z,12.34
2023-12-29T12:50:44.958Z,12.66
2023-12-29T12:53:41.486Z,12.33
2023-12-29T12:56:33.752Z,12.25
2023-12-29T12:59:25.868Z,12.70
2023-12-29T13:02:18.958Z,12.85
2023-12-29T13:05:11.194Z,12.44
2023-12-29T13:08:03.403Z,12.70
2023-12-29T13:10:55.428Z,12.65
2023-12-29T13:13:47.203Z,12.41
2023-12-29T13:16:39.265Z,11.97
2023-12-29T13:19:31.224Z,11.61
2023-12-29T13:22:23.226Z,12.05
2023-12-29T13:25:21.128Z,12.15
2023-12-29T13:28:14.293Z,12.41
2023-12-29T13:31:11.031Z,12.41
2023-12-29T13:34:13.361Z,12.54
2023-12-29T13:37:26.038Z,12.35
2023-12-29T13:40:26.330Z,12.45
2023-12-29T13:43:21.336Z,12.55
2023-12-29T13:46:17.597Z,12.67
2023-12-29T13:49:11.023Z,12.68
2023-12-29T13:52:05.222Z,12.74
2023-12-29T13:54:57.157Z,12.62
2023-12-29T13:57:49.132Z,12.72
2023-12-29T14:00:42.123Z,12.76
2023-12-29T14:04:13.033Z,12.74
2023-12-29T14:07:05.062Z,12.74
2023-12-29T14:09:56.923Z,12.78
2023-12-29T14:12:48.801Z,12.78
2023-12-29T14:15:42.955Z,12.64
2023-12-29T14:18:34.949Z,12.64
2023-12-29T14:21:34.745Z,12.39
2023-12-29T14:24:26.601Z,12.45
2023-12-29T14:27:18.469Z,12.47
2023-12-29T14:30:20.234Z,12.46
2023-12-29T14:33:12.752Z,12.24
2023-12-29T14:36:04.988Z,12.35
2023-12-29T14:38:56.802Z,12.40
2023-12-29T14:41:48.589Z,12.23
2023-12-29T14:44:40.367Z,11.89
2023-12-29T14:47:32.210Z,12.08
2023-12-29T14:50:24.036Z,12.03
2023-12-29T14:53:15.795Z,11.91
2023-12-29T14:56:07.771Z,12.05
2023-12-29T14:58:59.560Z,12.13
2023-12-29T15:01:51.465Z,12.13
2023-12-29T15:04:43.310Z,11.98
2023-12-29T15:07:35.096Z,12.00
2023-12-29T15:10:26.844Z,12.03
2023-12-29T15:13:18.687Z,12.03
2023-12-29T15:16:10.599Z,12.05
2023-12-29T15:19:02.464Z,12.00
2023-12-29T15:21:54.303Z,12.04
2023-12-29T15:24:46.134Z,11.88
2023-12-29T15:27:38.083Z,11.80
2023-12-29T15:30:29.884Z,11.91
2023-12-29T15:33:21.798Z,11.72
2023-12-29T15:36:14.558Z,11.66
2023-12-29T15:39:06.405Z,11.70
2023-12-29T15:41:58.188Z,11.63
2023-12-29T15:44:49.943Z,11.69
2023-12-29T15:47:41.793Z,11.34
2023-12-29T15:50:33.724Z,10.90
2023-12-29T15:53:25.607Z,11.21
2023-12-29T15:56:20.499Z,11.00
2023-12-29T15:59:12.250Z,10.75
2023-12-29T16:02:04.247Z,10.65
2023-12-29T16:04:56.089Z,10.59
2023-12-29T16:07:47.870Z,10.58
2023-12-29T16:10:39.768Z,10.58
2023-12-29T16:13:31.581Z,10.54
2023-12-29T16:16:23.447Z,10.59
2023-12-29T16:19:15.455Z,10.72
2023-12-29T16:22:07.346Z,10.92
2023-12-29T16:24:59.330Z,10.63
2023-12-29T16:27:51.201Z,10.88
2023-12-29T16:30:43.011Z,10.79
2023-12-29T16:33:35.305Z,10.85
2023-12-29T16:36:27.101Z,10.66
2023-12-29T16:39:18.879Z,10.74
2023-12-29T16:42:10.747Z,10.42
2023-12-29T16:45:02.496Z,10.54
2023-12-29T16:47:54.362Z,10.36
2023-12-29T16:50:46.202Z,10.51
2023-12-29T16:53:38.468Z,10.11
2023-12-29T16:56:30.223Z,9.44
2023-12-29T16:59:22.002Z,9.47
2023-12-29T17:02:13.824Z,9.83
2023-12-29T17:05:05.939Z,10.12
2023-12-29T17:07:57.744Z,10.13
2023-12-29T17:10:49.493Z,9.97
2023-12-29T17:13:41.268Z,10.21
2023-12-29T17:16:33.035Z,10.26
2023-12-29T17:19:24.905Z,10.20
2023-12-29T17:22:16.835Z,10.00
2023-12-29T17:25:09.151Z,10.12
2023-12-29T17:28:00.959Z,10.09
2023-12-29T17:30:52.875Z,10.03
2023-12-29T17:33:45.125Z,10.15
2023-12-29T17:36:36.965Z,10.03
2023-12-29T17:39:28.768Z,10.05
2023-12-29T17:42:20.572Z,9.81
2023-12-29T17:45:12.381Z,10.06
2023-12-29T17:48:04.414Z,9.74
2023-12-29T17:50:56.218Z,9.74
2023-12-29T17:53:47.985Z,9.92
2023-12-29T17:56:39.770Z,9.99
2023-12-29T17:59:31.631Z,10.17
2023-12-29T18:02:23.437Z,9.45
2023-12-29T18:05:15.179Z,9.75
2023-12-29T18:08:07.078Z,9.50
2023-12-29T18:11:04.085Z,9.56
2023-12-29T18:13:55.862Z,9.65
2023-12-29T18:16:47.627Z,9.75
2023-12-29T18:19:39.578Z,9.82
2023-12-29T18:22:31.431Z,10.05
2023-12-29T18:25:23.163Z,10.04
2023-12-29T18:28:14.912Z,10.07
2023-12-29T18:31:07.382Z,10.26
2023-12-29T18:33:59.344Z,10.28
2023-12-29T18:36:51.160Z,10.54
2023-12-29T18:39:43.067Z,10.23
2023-12-29T18:42:34.930Z,10.49
2023-12-29T18:45:26.990Z,10.13
2023-12-29T18:48:20.769Z,10.27
2023-12-29T18:51:13.223Z,10.16
2023-12-29T18:54:05.052Z,10.15
2023-12-29T18:56:56.838Z,10.31
2023-12-29T18:59:48.867Z,10.35
2023-12-29T19:02:40.788Z,10.54
2023-12-29T19:05:32.679Z,10.45
2023-12-29T19:08:24.502Z,10.28
2023-12-29T19:11:20.530Z,10.24
2023-12-29T19:14:12.450Z,10.31
2023-12-29T19:17:04.548Z,10.37
2023-12-29T19:19:56.351Z,10.33
2023-12-29T19:22:48.164Z,10.42
2023-12-29T19:25:39.893Z,10.47
2023-12-29T19:28:31.728Z,10.37
2023-12-29T19:31:23.626Z,10.32
2023-12-29T19:34:17.356Z,10.44
2023-12-29T19:37:09.327Z,10.50
2023-12-29T19:40:01.229Z,10.28
2023-12-29T19:42:53.095Z,10.23
2023-12-29T19:45:44.934Z,10.19
2023-12-29T19:48:37.071Z,10.43
2023-12-29T19:51:28.865Z,10.46
2023-12-29T19:54:20.680Z,10.39
2023-12-29T19:57:12.492Z,10.47
2023-12-29T20:00:04.767Z,10.26
2023-12-29T20:02:56.551Z,10.33
2023-12-29T20:05:48.448Z,10.42
2023-12-29T20:08:40.305Z,10.32
2023-12-29T20:11:32.079Z,10.27
2023-12-29T20:14:23.877Z,10.26
2023-12-29T20:17:21.735Z,10.39
2023-12-29T20:20:13.760Z,10.30
2023-12-29T20:23:05.601Z,10.53
2023-12-29T20:25:57.390Z,10.62
2023-12-29T20:28:50.049Z,10.54
2023-12-29T20:31:41.901Z,10.73
2023-12-29T20:34:33.737Z,10.45
2023-12-29T20:37:25.880Z,10.61
2023-12-29T20:40:17.889Z,10.50
2023-12-29T20:43:09.648Z,10.66
2023-12-29T20:46:01.430Z,10.29
2023-12-29T20:48:53.426Z,9.94
2023-12-29T20:51:45.447Z,9.82
2023-12-29T20:54:37.305Z,9.75
2023-12-29T20:57:30.139Z,9.63
2023-12-29T21:00:21.881Z,9.74
2023-12-29T21:03:13.676Z,9.83
2023-12-29T21:06:05.700Z,9.78
2023-12-29T21:08:57.548Z,9.78
2023-12-29T21:11:49.440Z,9.83
2023-12-29T21:14:41.242Z,9.79
2023-12-29T21:17:33.142Z,9.78
2023-12-29T21:20:24.950Z,9.57
2023-12-29T21:23:16.735Z,9.60
2023-12-29T21:26:08.552Z,9.68
2023-12-29T21:29:00.372Z,9.87
2023-12-29T21:31:52.159Z,9.94
2023-12-29T21:34:44.045Z,9.80
2023-12-29T21:37:35.885Z,9.52
2023-12-29T21:40:27.787Z,9.77
2023-12-29T21:43:19.731Z,9.77
2023-12-29T21:46:12.300Z,10.04
2023-12-29T21:49:04.503Z,10.02
2023-12-29T21:51:56.437Z,10.07
2023-12-29T21:54:48.261Z,9.86
2023-12-29T21:57:40.043Z,9.78
2023-12-29T22:00:31.871Z,10.07
2023-12-29T22:03:23.704Z,10.28
2023-12-29T22:06:15.482Z,10.46
2023-12-29T22:09:07.723Z,10.57
2023-12-29T22:11:59.559Z,10.63
2023-12-29T22:14:51.361Z,10.60
2023-12-29T22:17:43.158Z,10.62
2023-12-29T22:20:35.552Z,10.60
2023-12-29T22:23:27.314Z,10.53
2023-12-29T22:26:20.327Z,10.48
2023-12-29T22:29:12.130Z,10.53
2023-12-29T22:32:04.626Z,10.49
2023-12-29T22:34:56.462Z,10.43
2023-12-29T22:37:51.393Z,10.38
2023-12-29T22:40:43.149Z,10.39
2023-12-29T22:43:36.670Z,10.29
2023-12-29T22:46:28.586Z,10.28
2023-12-29T22:49:20.579Z,10.31
2023-12-29T22:52:12.696Z,10.31
2023-12-29T22:55:04.878Z,10.10
2023-12-29T22:57:56.681Z,10.14
2023-12-29T23:00:49.186Z,10.01
2023-12-29T23:03:41.073Z,9.83
2023-12-29T23:06:32.839Z,9.48
2023-12-29T23:09:26.147Z,9.59
2023-12-29T23:12:18.030Z,9.67
2023-12-29T23:15:10.128Z,9.74
2023-12-29T23:18:01.957Z,9.85
2023-12-29T23:20:53.804Z,9.85
2023-12-29T23:23:48.373Z,9.91
2023-12-29T23:26:43.138Z,9.92
2023-12-29T23:29:39.404Z,9.92
2023-12-29T23:32:31.258Z,10.05
2023-12-29T23:35:24.779Z,10.20
2023-12-29T23:38:17.080Z,10.15
2023-12-29T23:41:08.826Z,10.14
2023-12-29T23:44:02.045Z,9.85
2023-12-29T23:46:53.829Z,9.87
2023-12-29T23:49:45.660Z,9.57
2023-12-29T23:52:37.565Z,9.65
2023-12-29T23:55:29.412Z,9.53
2023-12-29T23:58:21.304Z,9.45
